Time;durP1;ratioP1;P1;durP2;ratioP2;P2;SDS_P1;SDS_P2;PMS_P1;PMS_P2;Temp;Humidity;BMP_temperature;BMP_pressure;BME280_temperature;BME280_humidity;BME280_pressure;Samples;Min_cycle;Max_cycle;Signal;HPM_P1;HPM_P2
2023/04/10 00:02:21;;;;;;;7.63;4.60;;;8.50;99.90;;;;;;4991240;28;20095;-73
2023/04/10 00:04:47;;;;;;;7.53;4.63;;;8.40;99.90;;;;;;4992465;28;20471;-73
2023/04/10 00:07:13;;;;;;;7.57;4.65;;;8.30;99.90;;;;;;4995281;28;20022;-73
2023/04/10 00:09:38;;;;;;;8.10;4.80;;;8.30;99.90;;;;;;4997060;28;20029;-73
2023/04/10 00:12:05;;;;;;;6.45;4.47;;;8.30;99.90;;;;;;4995781;28;20038;-73
2023/04/10 00:14:30;;;;;;;7.47;4.18;;;8.10;99.90;;;;;;4996342;28;20022;-73
2023/04/10 00:16:56;;;;;;;6.03;4.10;;;7.90;99.90;;;;;;4995641;28;20034;-73
2023/04/10 00:19:21;;;;;;;6.97;4.38;;;7.90;99.90;;;;;;4996351;28;20058;-73
2023/04/10 00:21:47;;;;;;;8.50;4.80;;;8.00;99.90;;;;;;4995572;28;20387;-73
2023/04/10 00:24:13;;;;;;;7.30;5.00;;;8.00;99.90;;;;;;4994912;28;20058;-73
2023/04/10 00:26:39;;;;;;;8.20;4.38;;;8.10;99.90;;;;;;4995444;28;20076;-73
2023/04/10 00:29:05;;;;;;;7.30;4.50;;;8.20;99.90;;;;;;4996792;28;20026;-73
2023/04/10 00:31:31;;;;;;;9.73;4.65;;;8.20;99.90;;;;;;4996124;28;20407;-72
2023/04/10 00:33:56;;;;;;;8.38;4.70;;;8.20;99.90;;;;;;4995424;28;20117;-72
2023/04/10 00:36:22;;;;;;;8.05;4.78;;;8.30;99.90;;;;;;4994397;28;20434;-72
2023/04/10 00:38:50;;;;;;;8.52;4.90;;;8.30;99.90;;;;;;4996525;28;20037;-73
2023/04/10 00:41:16;;;;;;;8.35;4.72;;;8.40;99.90;;;;;;4994448;28;20031;-72
2023/04/10 00:43:43;;;;;;;7.55;4.38;;;8.40;99.90;;;;;;4996736;28;20667;-72
2023/04/10 00:46:09;;;;;;;8.50;5.05;;;8.30;99.90;;;;;;4994962;28;20077;-72
2023/04/10 00:48:35;;;;;;;6.20;4.30;;;8.30;99.90;;;;;;4996559;28;20054;-72
2023/04/10 00:51:01;;;;;;;9.27;5.38;;;8.30;99.90;;;;;;4996445;28;20101;-72
2023/04/10 00:53:27;;;;;;;8.25;5.28;;;8.20;99.90;;;;;;4995791;28;20408;-72
2023/04/10 00:55:54;;;;;;;8.73;5.22;;;8.30;99.90;;;;;;4996233;28;20131;-72
2023/04/10 00:58:20;;;;;;;9.07;5.40;;;8.30;99.90;;;;;;4994335;28;20026;-72
2023/04/10 01:00:46;;;;;;;8.82;4.90;;;8.30;99.90;;;;;;4994885;28;20033;-72
2023/04/10 01:03:14;;;;;;;9.05;5.03;;;8.40;99.90;;;;;;4995511;28;20105;-72
2023/04/10 01:06:22;;;;;;;8.05;5.13;;;8.30;99.90;;;;;;4994823;28;20033;-72
2023/04/10 01:09:12;;;;;;;7.20;4.38;;;8.30;99.90;;;;;;4995760;28;20037;-72
2023/04/10 01:11:41;;;;;;;6.90;4.65;;;8.30;99.90;;;;;;4994516;28;20121;-72
2023/04/10 01:14:32;;;;;;;9.60;5.57;;;8.20;99.90;;;;;;4995693;28;20034;-72
2023/04/10 01:17:14;;;;;;;9.70;5.20;;;8.10;99.90;;;;;;4994652;28;20527;-72
2023/04/10 01:19:52;;;;;;;;;;;8.00;99.90;;;;;;4996429;28;20026;-72
2023/04/10 01:22:20;;;;;;;9.55;5.10;;;7.90;99.90;;;;;;4994015;28;19906;-72
2023/04/10 01:25:20;;;;;;;9.25;5.40;;;7.80;99.90;;;;;;4995721;28;20026;-72
2023/04/10 01:27:57;;;;;;;9.40;5.10;;;7.70;99.90;;;;;;4995690;28;20494;-72
2023/04/10 01:30:24;;;;;;;9.40;5.53;;;7.60;99.90;;;;;;4993754;28;20022;-72
2023/04/10 01:32:54;;;;;;;8.48;4.88;;;7.70;99.90;;;;;;4995584;28;20033;-72
2023/04/10 01:35:20;;;;;;;9.95;5.38;;;7.70;99.90;;;;;;4994827;28;20030;-72
2023/04/10 01:37:49;;;;;;;10.45;5.70;;;7.80;99.90;;;;;;4994231;28;20037;-72
2023/04/10 01:40:18;;;;;;;8.73;5.07;;;7.90;99.90;;;;;;4993528;28;20463;-72
2023/04/10 01:42:49;;;;;;;8.65;5.38;;;7.90;99.90;;;;;;4993787;28;20054;-72
2023/04/10 01:45:19;;;;;;;9.65;5.65;;;7.90;99.90;;;;;;4993665;28;20058;-72
2023/04/10 01:47:46;;;;;;;8.98;5.20;;;7.90;99.90;;;;;;4994352;28;20049;-72
2023/04/10 01:50:13;;;;;;;8.07;5.15;;;7.90;99.90;;;;;;4994940;28;20092;-72
2023/04/10 01:52:41;;;;;;;8.55;5.32;;;7.90;99.90;;;;;;4993933;28;20117;-72
2023/04/10 01:55:08;;;;;;;10.27;5.47;;;7.90;99.90;;;;;;4993774;28;20530;-72
2023/04/10 01:57:35;;;;;;;10.20;5.88;;;7.80;99.90;;;;;;4993170;28;20038;-72
2023/04/10 02:00:04;;;;;;;10.95;5.53;;;7.90;99.90;;;;;;4995175;28;20022;-73
2023/04/10 02:02:31;;;;;;;8.93;4.72;;;7.90;99.90;;;;;;4994445;28;20161;-72
2023/04/10 02:04:56;;;;;;;10.30;4.80;;;7.80;99.90;;;;;;4993733;28;20145;-72
2023/04/10 02:07:37;;;;;;;9.85;5.57;;;7.80;99.90;;;;;;4994074;28;20054;-72
2023/04/10 02:10:16;;;;;;;8.13;5.47;;;7.60;99.90;;;;;;4994856;28;20030;-72
2023/04/10 02:12:52;;;;;;;8.00;4.95;;;7.50;99.90;;;;;;4995155;28;20065;-72
2023/04/10 02:15:20;;;;;;;10.05;5.85;;;7.50;99.90;;;;;;4992639;28;20026;-72
2023/04/10 02:17:46;;;;;;;9.60;5.72;;;7.50;99.90;;;;;;4993474;28;20031;-72
2023/04/10 02:20:13;;;;;;;8.82;5.32;;;7.40;99.90;;;;;;4993380;28;20041;-72
2023/04/10 02:22:42;;;;;;;9.90;5.55;;;7.40;99.90;;;;;;4993442;28;20034;-72
2023/04/10 02:25:09;;;;;;;7.63;5.38;;;7.40;99.90;;;;;;4994617;28;20065;-72
2023/04/10 02:27:36;;;;;;;11.00;6.53;;;7.50;99.90;;;;;;4992047;28;20104;-72
2023/04/10 02:30:02;;;;;;;10.80;5.95;;;7.40;99.90;;;;;;4994536;28;20026;-72
2023/04/10 02:32:29;;;;;;;9.32;5.35;;;7.30;99.90;;;;;;4993567;28;20030;-72
2023/04/10 02:34:58;;;;;;;9.55;5.55;;;7.30;99.90;;;;;;4994323;28;20030;-72
2023/04/10 02:37:24;;;;;;;9.65;5.93;;;7.30;99.90;;;;;;4993450;28;20495;-71
2023/04/10 02:39:50;;;;;;;10.30;5.28;;;7.30;99.90;;;;;;4993066;28;20089;-72
2023/04/10 02:42:16;;;;;;;8.25;5.22;;;7.30;99.90;;;;;;4991834;28;20055;-72
2023/04/10 02:44:41;;;;;;;10.25;5.32;;;7.40;99.90;;;;;;4994231;28;20034;-72
2023/04/10 02:47:07;;;;;;;10.45;4.97;;;7.40;99.90;;;;;;4992979;28;20022;-72
2023/04/10 02:49:33;;;;;;;10.40;5.95;;;7.40;99.90;;;;;;4993550;28;20029;-73
2023/04/10 02:51:59;;;;;;;10.05;5.78;;;7.40;99.90;;;;;;4994099;28;20026;-72
2023/04/10 02:54:25;;;;;;;10.05;5.40;;;7.40;99.90;;;;;;4993400;28;20387;-72
2023/04/10 02:56:51;;;;;;;9.38;5.53;;;7.30;99.90;;;;;;4993703;28;20038;-72
2023/04/10 02:59:17;;;;;;;9.38;5.28;;;7.20;99.90;;;;;;4992156;28;20026;-71
2023/04/10 03:01:42;;;;;;;9.98;5.70;;;7.20;99.90;;;;;;4993899;28;20070;-72
2023/04/10 03:04:08;;;;;;;9.55;5.45;;;7.20;99.90;;;;;;4993638;28;20027;-72
2023/04/10 03:06:34;;;;;;;11.52;5.40;;;7.20;99.90;;;;;;4993302;28;20034;-72
2023/04/10 03:08:59;;;;;;;9.55;5.55;;;7.20;99.90;;;;;;4992683;28;20038;-72
2023/04/10 03:11:25;;;;;;;10.55;5.70;;;7.00;99.90;;;;;;4991763;28;20030;-72
2023/04/10 03:13:51;;;;;;;9.45;5.93;;;7.00;99.90;;;;;;4992685;28;20030;-72
2023/04/10 03:16:17;;;;;;;8.73;5.60;;;6.90;99.90;;;;;;4992245;28;20031;-72
2023/04/10 03:18:43;;;;;;;11.15;5.57;;;6.90;99.90;;;;;;4992282;28;20391;-73
2023/04/10 03:21:09;;;;;;;9.98;6.32;;;6.90;99.90;;;;;;4993607;28;20074;-72
2023/04/10 03:23:35;;;;;;;8.90;5.18;;;6.90;99.90;;;;;;4991724;28;20060;-72
2023/04/10 03:26:03;;;;;;;9.13;5.53;;;7.00;99.90;;;;;;4993585;28;20467;-72
2023/04/10 03:28:29;;;;;;;10.50;5.63;;;7.00;99.90;;;;;;4992849;28;20369;-72
2023/04/10 03:30:55;;;;;;;10.35;5.75;;;7.10;99.90;;;;;;4993430;28;20065;-72
2023/04/10 03:33:21;;;;;;;10.35;5.80;;;7.20;99.90;;;;;;4992785;28;20105;-72
2023/04/10 03:35:47;;;;;;;10.00;5.78;;;7.20;99.90;;;;;;4991896;28;20559;-72
2023/04/10 03:38:13;;;;;;;9.10;5.30;;;7.20;99.90;;;;;;4993264;28;20511;-72
2023/04/10 03:40:38;;;;;;;8.45;5.28;;;7.20;99.90;;;;;;4991955;28;20669;-72
2023/04/10 03:43:04;;;;;;;9.73;5.70;;;7.20;99.90;;;;;;4992892;28;20146;-72
2023/04/10 03:45:30;;;;;;;10.50;5.97;;;7.20;99.90;;;;;;4992625;28;20427;-73
2023/04/10 03:47:55;;;;;;;9.43;5.18;;;7.20;99.90;;;;;;4993221;28;20022;-72
2023/04/10 03:50:21;;;;;;;10.13;5.75;;;7.20;99.90;;;;;;4992563;28;20376;-72
2023/04/10 03:52:48;;;;;;;9.75;5.82;;;7.20;99.90;;;;;;4991858;28;20029;-72
2023/04/10 03:55:17;;;;;;;9.57;5.93;;;7.30;99.90;;;;;;4993101;28;20456;-72
2023/04/10 03:57:44;;;;;;;10.85;6.30;;;7.30;99.90;;;;;;4992523;28;20114;-72
2023/04/10 04:00:11;;;;;;;10.75;6.50;;;7.30;99.90;;;;;;4993066;28;20026;-72
2023/04/10 04:02:37;;;;;;;8.50;5.22;;;7.30;99.90;;;;;;4990896;28;20035;-72
2023/04/10 04:05:02;;;;;;;10.27;6.03;;;7.30;99.90;;;;;;4991736;28;20081;-72
2023/04/10 04:07:28;;;;;;;11.52;6.25;;;7.30;99.90;;;;;;4992497;28;20026;-72
2023/04/10 04:09:54;;;;;;;9.32;5.72;;;7.40;99.90;;;;;;4993309;28;20026;-72
2023/04/10 04:12:19;;;;;;;11.50;6.38;;;7.40;99.90;;;;;;4993309;28;20038;-72
2023/04/10 04:14:45;;;;;;;10.82;5.60;;;7.50;99.90;;;;;;4992565;28;20031;-72
2023/04/10 04:17:11;;;;;;;10.55;5.82;;;7.50;99.90;;;;;;4992638;28;20089;-72
2023/04/10 04:19:36;;;;;;;10.15;5.85;;;7.40;99.90;;;;;;4992395;28;20061;-72
2023/04/10 04:22:03;;;;;;;10.32;5.90;;;7.40;99.90;;;;;;4992864;28;20026;-72
2023/04/10 04:24:28;;;;;;;9.38;5.63;;;7.50;99.90;;;;;;4992249;28;20030;-72
2023/04/10 04:26:55;;;;;;;10.25;5.70;;;7.40;99.90;;;;;;4991661;28;20026;-72
2023/04/10 04:29:21;;;;;;;8.05;5.18;;;7.40;99.90;;;;;;4991576;28;20361;-72
2023/04/10 04:31:47;;;;;;;9.85;5.80;;;7.40;99.90;;;;;;4991556;28;20030;-72
2023/04/10 04:34:12;;;;;;;10.43;6.07;;;7.40;99.90;;;;;;4992783;28;20370;-72
2023/04/10 04:36:38;;;;;;;11.43;6.80;;;7.40;99.90;;;;;;4992084;28;20503;-72
2023/04/10 04:39:04;;;;;;;9.85;5.47;;;7.40;99.90;;;;;;4991570;28;20030;-72
2023/04/10 04:41:31;;;;;;;10.50;6.22;;;7.40;99.90;;;;;;4990948;28;20045;-72
2023/04/10 04:43:57;;;;;;;10.38;5.68;;;7.40;99.90;;;;;;4991040;28;20077;-72
2023/04/10 04:46:23;;;;;;;11.07;5.85;;;7.30;99.90;;;;;;4992254;28;20026;-71
2023/04/10 04:48:49;;;;;;;11.13;5.63;;;7.30;99.90;;;;;;4992682;28;20034;-73
2023/04/10 04:51:15;;;;;;;10.45;6.10;;;7.30;99.90;;;;;;4993944;28;20064;-72
2023/04/10 04:53:40;;;;;;;11.95;6.30;;;7.30;99.90;;;;;;4994443;28;20026;-72
2023/04/10 04:56:06;;;;;;;10.68;6.10;;;7.30;99.90;;;;;;4994895;28;20460;-72
2023/04/10 04:58:32;;;;;;;10.65;6.32;;;7.30;99.90;;;;;;4994311;28;20030;-72
2023/04/10 05:00:58;;;;;;;9.30;5.40;;;7.10;99.90;;;;;;4996404;28;20353;-72
2023/04/10 05:03:24;;;;;;;9.95;5.55;;;7.10;99.90;;;;;;4994267;28;20031;-71
2023/04/10 05:05:50;;;;;;;10.68;5.80;;;7.10;99.90;;;;;;4994785;28;20041;-72
2023/04/10 05:08:16;;;;;;;10.93;5.70;;;7.10;99.90;;;;;;4994767;28;20030;-72
2023/04/10 05:10:41;;;;;;;8.10;5.22;;;7.10;99.90;;;;;;4993986;28;20468;-72
2023/04/10 05:13:07;;;;;;;9.80;5.60;;;7.10;99.90;;;;;;4995986;28;20022;-72
2023/04/10 05:15:32;;;;;;;11.23;5.78;;;7.10;99.90;;;;;;4994979;28;20439;-72
2023/04/10 05:17:58;;;;;;;10.40;5.63;;;7.10;99.90;;;;;;4995842;28;20479;-72
2023/04/10 05:20:24;;;;;;;11.23;5.47;;;7.10;99.90;;;;;;4994601;28;20052;-72
2023/04/10 05:22:51;;;;;;;10.52;5.63;;;7.10;99.90;;;;;;4996009;28;20034;-72
2023/04/10 05:25:17;;;;;;;10.15;5.28;;;7.10;99.90;;;;;;4995708;28;20022;-73
2023/04/10 05:27:43;;;;;;;10.23;5.78;;;7.10;99.90;;;;;;4993824;28;20029;-72
2023/04/10 05:30:09;;;;;;;10.32;5.57;;;7.20;99.90;;;;;;4994365;28;20046;-72
2023/04/10 05:32:34;;;;;;;10.65;5.38;;;7.20;99.90;;;;;;4994720;28;20022;-72
2023/04/10 05:35:00;;;;;;;9.20;5.35;;;7.30;99.90;;;;;;4995671;28;20494;-72
2023/04/10 05:37:26;;;;;;;9.23;5.45;;;7.30;99.90;;;;;;4993604;28;20042;-71
2023/04/10 05:39:51;;;;;;;11.30;5.53;;;7.30;99.90;;;;;;4995387;28;20070;-72
2023/04/10 05:42:17;;;;;;;8.05;5.38;;;7.40;99.90;;;;;;4995394;28;20149;-72
2023/04/10 05:44:44;;;;;;;8.93;4.97;;;7.30;99.90;;;;;;4994828;28;20034;-72
2023/04/10 05:47:09;;;;;;;11.35;5.18;;;7.40;99.90;;;;;;4995356;28;20019;-72
2023/04/10 05:49:35;;;;;;;10.50;5.55;;;7.50;99.90;;;;;;4993441;28;20491;-71
2023/04/10 05:52:01;;;;;;;8.93;5.35;;;7.50;99.90;;;;;;4994169;28;20027;-72
2023/04/10 05:54:26;;;;;;;10.15;5.30;;;7.60;99.90;;;;;;4993866;28;20409;-72
2023/04/10 05:56:52;;;;;;;9.50;5.25;;;7.60;99.90;;;;;;4995070;28;20065;-72
2023/04/10 05:59:18;;;;;;;9.15;5.25;;;7.60;99.90;;;;;;4995446;28;20030;-72
2023/04/10 06:01:46;;;;;;;8.27;4.97;;;7.70;99.90;;;;;;4993205;28;20470;-72
2023/04/10 06:04:11;;;;;;;8.70;5.13;;;7.70;99.90;;;;;;4994322;28;20018;-72
2023/04/10 06:06:37;;;;;;;8.50;4.93;;;7.80;99.90;;;;;;4993119;28;20037;-72
2023/04/10 06:09:03;;;;;;;7.95;4.40;;;7.90;99.90;;;;;;4993362;28;20026;-72
2023/04/10 06:11:29;;;;;;;7.32;4.32;;;8.00;99.90;;;;;;4992961;28;20042;-72
2023/04/10 06:13:55;;;;;;;7.43;4.82;;;8.00;99.90;;;;;;4992762;28;20034;-72
2023/04/10 06:16:20;;;;;;;9.10;5.20;;;8.00;99.90;;;;;;4994707;28;20064;-72
2023/04/10 06:18:46;;;;;;;9.38;4.50;;;8.00;99.90;;;;;;4992869;28;20037;-71
2023/04/10 06:21:12;;;;;;;5.60;3.70;;;8.10;99.90;;;;;;4993475;28;20065;-72
2023/04/10 06:23:37;;;;;;;6.70;4.13;;;8.10;99.90;;;;;;4994097;28;20037;-72
2023/04/10 06:26:03;;;;;;;6.55;4.03;;;8.20;99.90;;;;;;4994374;28;20037;-72
2023/04/10 06:28:29;;;;;;;7.47;4.30;;;8.20;99.90;;;;;;4993969;28;20365;-72
2023/04/10 06:30:56;;;;;;;7.68;4.50;;;8.30;99.90;;;;;;4993313;28;20026;-72
2023/04/10 06:33:21;;;;;;;6.55;4.13;;;8.30;99.90;;;;;;4994391;28;20176;-72
2023/04/10 06:35:47;;;;;;;6.00;3.90;;;8.40;99.90;;;;;;4993759;28;20563;-72
2023/04/10 06:38:13;;;;;;;10.05;4.00;;;8.40;99.90;;;;;;4994008;28;20113;-72
2023/04/10 06:40:40;;;;;;;6.80;3.72;;;8.50;99.90;;;;;;4993044;28;20018;-72
2023/04/10 06:43:05;;;;;;;6.18;4.13;;;8.50;99.90;;;;;;4994485;28;20042;-72
2023/04/10 06:45:31;;;;;;;5.60;3.55;;;8.60;99.90;;;;;;4993568;28;20038;-72
2023/04/10 06:47:56;;;;;;;7.18;4.10;;;8.60;99.90;;;;;;4992892;28;20431;-72
2023/04/10 06:50:22;;;;;;;7.78;4.30;;;8.70;99.90;;;;;;5009181;28;20062;-72
2023/04/10 06:52:48;;;;;;;4.72;3.45;;;8.80;99.90;;;;;;4992208;28;20033;-72
2023/04/10 06:55:13;;;;;;;6.90;3.58;;;8.80;99.90;;;;;;4994181;28;20030;-73
2023/04/10 06:57:39;;;;;;;7.20;3.88;;;8.90;99.90;;;;;;4993376;28;20081;-72
2023/04/10 07:00:06;;;;;;;6.07;4.25;;;9.00;99.90;;;;;;4993989;28;20088;-72
2023/04/10 07:02:32;;;;;;;6.90;3.83;;;9.00;99.90;;;;;;4993265;28;20026;-72
2023/04/10 07:04:57;;;;;;;6.35;3.85;;;9.10;99.90;;;;;;4993559;28;20031;-72
2023/04/10 07:07:23;;;;;;;4.88;3.25;;;9.20;99.90;;;;;;4992538;28;20032;-72
2023/04/10 07:09:49;;;;;;;5.53;3.38;;;9.20;99.90;;;;;;4991907;28;20502;-72
2023/04/10 07:12:15;;;;;;;6.72;3.60;;;9.30;99.90;;;;;;4992130;28;20038;-72
2023/04/10 07:14:41;;;;;;;5.13;3.47;;;9.40;99.90;;;;;;4993061;28;20061;-72
2023/04/10 07:17:07;;;;;;;5.82;3.72;;;9.40;99.90;;;;;;5008871;28;20384;-72
2023/04/10 07:19:33;;;;;;;7.63;3.78;;;9.40;99.90;;;;;;5007741;28;20033;-72
2023/04/10 07:21:59;;;;;;;4.05;2.85;;;9.50;99.90;;;;;;4993544;28;20026;-72
2023/04/10 07:24:25;;;;;;;4.75;2.90;;;9.50;99.90;;;;;;4993649;28;20022;-72
2023/04/10 07:26:50;;;;;;;5.97;3.42;;;9.60;99.90;;;;;;4992965;28;20037;-72
2023/04/10 07:29:16;;;;;;;6.45;3.53;;;9.60;99.90;;;;;;4992410;28;20033;-72
2023/04/10 07:31:42;;;;;;;4.90;3.05;;;9.60;99.90;;;;;;4992818;28;20061;-72
2023/04/10 07:34:10;;;;;;;4.78;3.30;;;9.60;99.90;;;;;;4993242;28;20026;-72
2023/04/10 07:36:35;;;;;;;4.15;3.08;;;9.70;99.90;;;;;;4992718;28;20456;-72
2023/04/10 07:39:01;;;;;;;4.75;3.15;;;9.70;99.90;;;;;;4992109;28;20031;-72
2023/04/10 07:41:27;;;;;;;5.63;3.08;;;9.70;99.90;;;;;;4991992;28;20125;-72
2023/04/10 07:43:52;;;;;;;5.72;3.30;;;9.80;99.90;;;;;;4992350;28;20379;-72
2023/04/10 07:46:18;;;;;;;5.78;2.90;;;9.90;99.90;;;;;;4993271;28;20378;-72
2023/04/10 07:48:45;;;;;;;5.07;3.28;;;9.90;99.90;;;;;;4992537;28;20071;-72
2023/04/10 07:51:11;;;;;;;4.50;2.90;;;10.00;99.90;;;;;;4993385;28;20029;-72
2023/04/10 07:53:37;;;;;;;6.15;2.83;;;10.10;99.90;;;;;;4992616;28;20026;-72
2023/04/10 07:56:03;;;;;;;4.28;2.80;;;10.10;99.70;;;;;;4993062;28;20038;-72
2023/04/10 07:58:29;;;;;;;3.88;2.63;;;10.20;99.50;;;;;;4992888;28;20403;-72
2023/04/10 08:00:55;;;;;;;4.35;2.75;;;10.20;99.20;;;;;;4992498;28;20026;-72
2023/04/10 08:03:22;;;;;;;4.18;2.83;;;10.30;99.90;;;;;;5008315;28;20452;-72
2023/04/10 08:05:48;;;;;;;4.22;2.80;;;10.40;99.90;;;;;;4992459;28;20116;-72
2023/04/10 08:08:15;;;;;;;3.42;2.38;;;10.40;99.70;;;;;;4992995;28;20165;-72
2023/04/10 08:10:41;;;;;;;6.28;2.80;;;10.50;99.30;;;;;;4991166;28;20034;-71
2023/04/10 08:13:07;;;;;;;5.00;2.80;;;10.50;99.30;;;;;;4991758;28;20113;-72
2023/04/10 08:15:33;;;;;;;4.47;2.97;;;10.60;99.40;;;;;;4992787;28;20113;-72
2023/04/10 08:17:58;;;;;;;4.38;2.88;;;10.60;98.80;;;;;;4991014;28;20035;-72
2023/04/10 08:20:24;;;;;;;4.03;2.97;;;10.60;98.30;;;;;;4992962;28;20037;-72
2023/04/10 08:22:50;;;;;;;4.85;2.47;;;10.70;98.50;;;;;;4992278;28;20030;-72
2023/04/10 08:25:15;;;;;;;4.28;2.35;;;10.70;98.30;;;;;;4992886;28;20109;-72
2023/04/10 08:27:41;;;;;;;3.00;2.17;;;10.80;98.70;;;;;;4995669;28;20026;-72
2023/04/10 08:30:07;;;;;;;3.83;2.70;;;10.80;97.30;;;;;;4996722;28;20026;-72
2023/04/10 08:32:33;;;;;;;3.95;2.45;;;10.80;97.70;;;;;;5011823;28;20026;-72
2023/04/10 08:34:58;;;;;;;3.55;2.53;;;11.00;97.50;;;;;;4995745;28;20034;-72
2023/04/10 08:37:25;;;;;;;2.58;2.17;;;11.00;98.10;;;;;;4996731;28;20475;-72
2023/04/10 08:39:51;;;;;;;3.25;2.50;;;11.10;97.10;;;;;;4996020;28;20037;-72
2023/04/10 08:42:16;;;;;;;5.40;3.55;;;11.10;97.30;;;;;;4996364;28;20046;-72
2023/04/10 08:44:42;;;;;;;4.45;2.95;;;11.20;96.40;;;;;;4994754;28;20073;-72
2023/04/10 08:47:09;;;;;;;4.45;2.60;;;11.40;96.10;;;;;;4995364;28;20387;-72
2023/04/10 08:49:43;;;;;;;3.33;2.20;;;11.40;94.60;;;;;;4995131;28;20034;-73
2023/04/10 08:52:15;;;;;;;4.55;2.60;;;11.40;95.60;;;;;;4995318;28;20084;-72
2023/04/10 08:54:47;;;;;;;5.25;2.67;;;11.50;95.70;;;;;;4995798;28;20022;-72
2023/04/10 08:57:19;;;;;;;4.38;2.67;;;11.60;96.20;;;;;;4995315;28;20057;-72
2023/04/10 08:59:45;;;;;;;3.88;2.70;;;11.60;95.30;;;;;;4995766;28;20026;-72
2023/04/10 09:02:11;;;;;;;3.00;2.38;;;11.60;95.00;;;;;;5011425;28;20037;-72
2023/04/10 09:04:37;;;;;;;3.03;2.10;;;11.60;94.40;;;;;;4996129;28;20031;-72
2023/04/10 09:07:03;;;;;;;2.42;2.08;;;11.70;94.80;;;;;;4994861;28;20037;-72
2023/04/10 09:09:31;;;;;;;3.58;2.30;;;11.80;93.50;;;;;;4995786;28;20026;-72
2023/04/10 09:11:59;;;;;;;3.17;2.20;;;11.90;93.40;;;;;;4995130;28;20037;-72
2023/04/10 09:14:31;;;;;;;2.95;2.17;;;11.90;93.30;;;;;;4995956;28;20023;-72
2023/04/10 09:17:21;;;;;;;2.70;2.15;;;11.90;92.90;;;;;;4995342;28;20387;-72
2023/04/10 09:19:51;;;;;;;2.83;1.85;;;12.00;93.00;;;;;;4994025;28;20033;-72
2023/04/10 09:22:17;;;;;;;3.13;2.10;;;12.00;92.50;;;;;;4994739;28;20392;-73
2023/04/10 09:24:45;;;;;;;3.45;2.40;;;12.10;91.10;;;;;;4993965;28;20077;-73
2023/04/10 09:27:33;;;;;;;3.05;1.80;;;12.10;91.10;;;;;;4994585;28;20388;-72
2023/04/10 09:30:00;;;;;;;2.00;1.75;;;12.20;90.40;;;;;;4993822;28;20080;-72
2023/04/10 09:32:37;;;;;;;2.45;1.60;;;12.30;89.20;;;;;;4995912;28;20411;-72
2023/04/10 09:35:04;;;;;;;2.72;1.52;;;12.40;87.40;;;;;;4994969;28;20034;-72
2023/04/10 09:37:31;;;;;;;2.10;1.45;;;12.60;86.70;;;;;;4993164;28;20034;-72
2023/04/10 09:39:57;;;;;;;2.28;1.70;;;12.80;85.50;;;;;;4993723;28;20034;-72
2023/04/10 09:42:38;;;;;;;3.60;1.73;;;12.90;85.50;;;;;;4994937;28;20053;-72
2023/04/10 09:45:04;;;;;;;1.95;1.30;;;13.00;85.70;;;;;;4994941;28;20030;-72
2023/04/10 09:47:31;;;;;;;2.40;1.75;;;13.00;85.50;;;;;;5010441;28;20033;-72
2023/04/10 09:50:02;;;;;;;2.83;1.80;;;13.20;83.50;;;;;;4994722;28;20057;-72
2023/04/10 09:52:32;;;;;;;2.78;1.52;;;13.20;82.80;;;;;;4995378;28;20077;-72
2023/04/10 09:55:03;;;;;;;1.98;1.67;;;13.30;82.70;;;;;;4993381;28;20448;-72
2023/04/10 09:57:29;;;;;;;2.22;1.67;;;13.40;81.90;;;;;;4995260;28;20468;-72
2023/04/10 09:59:57;;;;;;;2.80;1.60;;;13.40;80.20;;;;;;4994823;28;20031;-72
2023/04/10 10:02:24;;;;;;;2.40;1.75;;;13.50;77.20;;;;;;4995132;28;20472;-72
2023/04/10 10:04:51;;;;;;;2.10;1.60;;;13.60;76.90;;;;;;4993140;28;20037;-72
2023/04/10 10:07:19;;;;;;;1.98;1.60;;;13.50;75.60;;;;;;4995035;28;20113;-72
2023/04/10 10:09:47;;;;;;;2.50;1.60;;;13.60;80.00;;;;;;4994407;28;20062;-72
2023/04/10 10:12:16;;;;;;;2.50;1.70;;;13.50;78.60;;;;;;4993575;28;20034;-72
2023/04/10 10:15:04;;;;;;;1.60;1.40;;;13.50;78.30;;;;;;4993166;28;20121;-72
2023/04/10 10:17:42;;;;;;;2.15;1.50;;;13.50;81.10;;;;;;4995142;28;20065;-72
2023/04/10 10:20:10;;;;;;;2.00;1.42;;;13.60;81.60;;;;;;4993912;28;20033;-72
2023/04/10 10:22:37;;;;;;;4.28;1.50;;;13.50;81.60;;;;;;4994743;28;20035;-72
2023/04/10 10:25:03;;;;;;;2.30;1.60;;;13.50;80.50;;;;;;4994392;28;20251;-72
2023/04/10 10:27:33;;;;;;;2.05;1.83;;;13.60;74.30;;;;;;4994636;28;20027;-72
2023/04/10 10:30:00;;;;;;;2.00;1.50;;;13.60;72.90;;;;;;4994057;28;20543;-72
2023/04/10 10:32:26;;;;;;;1.88;1.40;;;13.70;73.50;;;;;;4993295;28;20023;-72
2023/04/10 10:34:52;;;;;;;2.00;1.70;;;13.70;75.00;;;;;;4992567;28;20034;-72
2023/04/10 10:37:22;;;;;;;2.20;1.55;;;13.80;77.90;;;;;;4993202;28;20035;-72
2023/04/10 10:40:03;;;;;;;3.42;1.70;;;13.90;78.30;;;;;;4993824;28;20029;-72
2023/04/10 10:42:54;;;;;;;1.40;1.27;;;13.90;77.70;;;;;;4992549;28;20262;-72
2023/04/10 10:45:31;;;;;;;1.55;1.40;;;14.00;74.90;;;;;;4993072;28;20085;-72
2023/04/10 10:47:57;;;;;;;1.65;1.25;;;14.10;75.10;;;;;;4993754;28;20034;-72
2023/04/10 10:50:22;;;;;;;1.40;1.23;;;14.30;73.80;;;;;;4992889;28;20114;-72
2023/04/10 10:52:51;;;;;;;2.97;1.67;;;14.50;70.70;;;;;;4993558;28;20026;-72
2023/04/10 10:55:27;;;;;;;3.97;1.50;;;14.80;68.90;;;;;;4992759;28;20069;-73
2023/04/10 10:57:53;;;;;;;3.03;1.85;;;15.00;68.50;;;;;;4992201;28;20501;-72
2023/04/10 11:00:24;;;;;;;2.63;1.67;;;15.10;69.00;;;;;;4992701;28;20077;-72
2023/04/10 11:03:09;;;;;;;3.08;1.75;;;15.20;68.50;;;;;;4993374;28;20463;-72
2023/04/10 11:05:51;;;;;;;2.42;1.58;;;15.40;65.50;;;;;;4992605;28;20069;-72
2023/04/10 11:08:17;;;;;;;2.53;1.55;;;15.60;62.80;;;;;;4993995;28;20519;-72
2023/04/10 11:11:02;;;;;;;1.95;1.40;;;15.70;61.90;;;;;;4993525;28;20118;-72
2023/04/10 11:13:28;;;;;;;1.67;1.30;;;15.70;63.40;;;;;;4993843;28;20044;-72
2023/04/10 11:15:58;;;;;;;1.60;1.20;;;15.80;61.70;;;;;;4993072;28;20034;-72
2023/04/10 11:18:46;;;;;;;1.80;1.40;;;15.90;62.20;;;;;;4994057;28;20055;-73
2023/04/10 11:21:20;;;;;;;4.38;1.77;;;16.00;61.60;;;;;;4992426;28;20033;-73
2023/04/10 11:23:49;;;;;;;2.13;1.55;;;16.00;62.60;;;;;;4993256;28;20077;-72
2023/04/10 11:26:39;;;;;;;2.55;1.70;;;16.10;63.00;;;;;;4993607;28;20061;-72
2023/04/10 11:29:16;;;;;;;3.05;1.80;;;16.10;64.00;;;;;;4993010;28;20026;-72
2023/04/10 11:31:53;;;;;;;2.67;1.60;;;16.20;61.50;;;;;;4993516;28;20105;-73
2023/04/10 11:34:19;;;;;;;2.25;1.60;;;16.20;60.20;;;;;;4992431;28;20034;-73
2023/04/10 11:36:46;;;;;;;2.05;1.33;;;16.20;59.60;;;;;;4993072;28;20041;-72
2023/04/10 11:39:16;;;;;;;3.22;1.70;;;16.40;59.30;;;;;;4993435;28;20037;-72
2023/04/10 11:41:44;;;;;;;2.05;1.50;;;16.50;59.70;;;;;;5008430;28;20145;-72
2023/04/10 11:44:12;;;;;;;1.63;1.40;;;16.70;61.90;;;;;;4992564;28;20124;-72
2023/04/10 11:46:40;;;;;;;1.77;1.42;;;16.90;61.80;;;;;;4991723;28;20117;-72
2023/04/10 11:49:08;;;;;;;1.77;1.45;;;17.00;59.90;;;;;;4991414;28;20033;-72
2023/04/10 11:51:35;;;;;;;1.90;1.40;;;17.00;58.30;;;;;;4991965;28;20057;-72
2023/04/10 11:54:24;;;;;;;1.80;1.50;;;17.10;58.00;;;;;;4992998;28;20044;-73
2023/04/10 11:56:59;;;;;;;2.30;1.73;;;17.10;56.70;;;;;;4981355;28;20403;-72
2023/04/10 11:59:26;;;;;;;1.80;1.48;;;17.20;57.20;;;;;;4993130;28;20069;-73
2023/04/10 12:02:01;;;;;;;2.60;1.83;;;17.30;56.80;;;;;;4991933;28;20026;-73
2023/04/10 12:04:27;;;;;;;2.45;1.70;;;17.40;56.90;;;;;;4991889;28;20026;-72
2023/04/10 12:06:55;;;;;;;1.80;1.50;;;17.40;56.40;;;;;;4991206;28;20069;-72
2023/04/10 12:09:21;;;;;;;3.92;1.60;;;17.50;56.40;;;;;;4993094;28;20452;-73
2023/04/10 12:11:58;;;;;;;1.85;1.40;;;17.60;55.90;;;;;;4993245;28;20531;-73
2023/04/10 12:14:34;;;;;;;1.92;1.50;;;17.60;54.10;;;;;;4992020;28;20140;-73
2023/04/10 12:17:00;;;;;;;1.90;1.33;;;17.70;54.70;;;;;;4991304;28;20049;-73
2023/04/10 12:19:27;;;;;;;2.67;1.40;;;17.70;54.30;;;;;;4991934;28;20037;-73
2023/04/10 12:21:53;;;;;;;1.75;1.50;;;17.80;53.40;;;;;;4991118;28;20033;-72
2023/04/10 12:24:47;;;;;;;1.48;1.20;;;17.90;53.30;;;;;;4993364;28;20054;-72
2023/04/10 12:27:25;;;;;;;2.05;1.50;;;18.00;53.60;;;;;;4991078;28;20034;-73
2023/04/10 12:29:54;;;;;;;1.70;1.38;;;18.10;52.30;;;;;;4991005;28;20026;-72
2023/04/10 12:32:21;;;;;;;3.03;1.45;;;18.20;52.60;;;;;;4992780;28;20050;-73
2023/04/10 12:34:52;;;;;;;1.58;1.15;;;18.30;52.80;;;;;;4992833;28;20026;-73
2023/04/10 12:37:18;;;;;;;2.20;1.42;;;18.30;52.00;;;;;;4991584;28;20427;-73
2023/04/10 12:39:44;;;;;;;1.60;1.30;;;18.40;52.50;;;;;;4992815;28;20077;-72
2023/04/10 12:42:21;;;;;;;1.80;1.20;;;18.60;51.90;;;;;;4990663;28;20050;-73
2023/04/10 12:44:55;;;;;;;1.63;1.40;;;18.70;51.40;;;;;;4992865;28;20046;-73
2023/04/10 12:47:22;;;;;;;1.52;1.38;;;18.70;51.00;;;;;;4991557;28;20022;-73
2023/04/10 12:50:08;;;;;;;1.80;1.60;;;18.80;51.80;;;;;;4991595;28;20411;-73
2023/04/10 12:52:35;;;;;;;1.67;1.40;;;19.00;51.50;;;;;;4991741;28;20080;-72
2023/04/10 12:55:16;;;;;;;1.70;1.52;;;19.10;51.50;;;;;;4992024;28;20037;-73
2023/04/10 12:57:44;;;;;;;2.15;1.30;;;19.20;49.90;;;;;;4991575;28;20129;-72